Main page
METAR-TAF:

METAR-TAF

Airports :

Nouakchott, Mauritania

Nouakchott–Oumtounsy International Airport

latitude: 18-18-36N, longitude: 015-58-11W, elevation: 3 m

Current weather observation

The report was made 23 minutes ago, at 11:30 UTC
Wind 9 kt from the West/Southwest, varying between South/Southwest and West
Temperature 32°C
Humidity 59%
Pressure 1013 hPa
Visibility: 8000 m
Few clouds at a height of 2000 ft

METAR: GQNO 211130Z 24009KT 210V270 8000 FEW020 32/23 Q1013 NOSIG

Time: 11:53 (11:53 UTC)

Forecast

The report was made 6 hours and 53 minutes ago, at 05:00 UTC
Forecast valid from 21 at 06 UTC to 22 at 12 UTC
Wind 12 kt from the West/Northwest
Visibility: 8000 m
Scattered clouds at a height of 1000 ft

TAF: GQNO 210500Z 2106/2212 30012KT 8000 SCT010

Weather observations and forecasts of more than 4000 airports (METAR and TAF reports).

The available stations are represented by yellow and red dots on the map.

Hover mouse over dot to see the name of the station.

Then click to see weather observations and forecasts.

To change the map : click on the green buttons with a black cross to zoom in, on the green button with a dash to zoom out, or on the green arrows for adjacent maps.


METAR-TAF: